Volgoneft-212 — UBQB-2 — position and weather

sailwx.info

Track history (hours):
 
Tides and Currents Weather Stations Pressure Air Temp Water Temp Dewpoint Dewpoint Depression Visibility Wind Speed Wind Dir Waves Ship Positions

Volgoneft-212

Last reported at 2018-Jul-15 14:24 UTC. Time now 2018-Jul-23 06:08 UTC.
Position N 45°31' E 036°49'.

Length 136 m; draft 2.6 m.

Type: Tanker. MMSI: 273333930.

Date/timePositionNaut miles runAvg speedWind from/ knotsBaromVisibWave heightAir tempDewpointWater temp
2018-Jul-15 14:24N 45°31' E 036°49'2 5.3
2018-Jul-15 14:00N 45°29' E 036°47'3 5.6
2018-Jul-15 13:28N 45°28' E 036°43'3 5.5
2018-Jul-15 13:00N 45°26' E 036°42'3 5.6
2018-Jul-15 12:30N 45°23' E 036°41'3 5.3
2018-Jul-15 12:00N 45°21' E 036°39'3 5.8
2018-Jul-15 11:30N 45°20' E 036°36'3 5.6
2018-Jul-15 11:00N 45°19' E 036°32'3 5.1
2018-Jul-15 10:30N 45°17' E 036°29'2 4.2
2018-Jul-15 10:00N 45°15' E 036°29'0 0.9
2018-Jul-15 09:30N 45°14' E 036°29'1 2.2
2018-Jul-15 08:56N 45°13' E 036°29'1 0.1
2018-Jul-15 04:24N 45°13' E 036°30'6 0.2
2018-Jul-13 23:53N 45°19' E 036°32'2 5.2
2018-Jul-13 23:30N 45°19' E 036°35'3 5.4
2018-Jul-13 23:00N 45°20' E 036°38'2 4.2
2018-Jul-13 22:30N 45°22' E 036°40'2 3.5
2018-Jul-13 21:57N 45°24' E 036°42'0 0.1
2018-Jul-13 20:09N 45°23' E 036°42'0 0.1
2018-Jul-13 20:00N 45°23' E 036°42'0 0.0
2018-Jul-13 17:39N 45°24' E 036°42'1 3.9
2018-Jul-13 17:30N 45°24' E 036°42'14 6.2
2018-Jul-13 15:16N 45°37' E 036°48'  
Track history (hours):
 
Tides and Currents Weather Stations Pressure Air Temp Water Temp Dewpoint Dewpoint Depression Visibility Wind Speed Wind Dir Waves Ship Positions

Volgoneft-212

Last reported at 2018-Jul-15 14:24 UTC. Time now 2018-Jul-23 06:08 UTC.
Position N 45°31' E 036°49'.

Length 136 m; draft 2.6 m.

Type: Tanker. MMSI: 273333930.

Date/timePositionNaut miles runAvg speedWind from/ knotsBaromVisibWave heightAir tempDewpointWater temp
2018-Jul-15 14:24N 45°31' E 036°49'2 5.3
2018-Jul-15 14:00N 45°29' E 036°47'3 5.6
2018-Jul-15 13:28N 45°28' E 036°43'3 5.5
2018-Jul-15 13:00N 45°26' E 036°42'3 5.6
2018-Jul-15 12:30N 45°23' E 036°41'3 5.3
2018-Jul-15 12:00N 45°21' E 036°39'3 5.8
2018-Jul-15 11:30N 45°20' E 036°36'3 5.6
2018-Jul-15 11:00N 45°19' E 036°32'3 5.1
2018-Jul-15 10:30N 45°17' E 036°29'2 4.2
2018-Jul-15 10:00N 45°15' E 036°29'0 0.9
2018-Jul-15 09:30N 45°14' E 036°29'1 2.2
2018-Jul-15 08:56N 45°13' E 036°29'1 0.1
2018-Jul-15 04:24N 45°13' E 036°30'6 0.2
2018-Jul-13 23:53N 45°19' E 036°32'2 5.2
2018-Jul-13 23:30N 45°19' E 036°35'3 5.4
2018-Jul-13 23:00N 45°20' E 036°38'2 4.2
2018-Jul-13 22:30N 45°22' E 036°40'2 3.5
2018-Jul-13 21:57N 45°24' E 036°42'0 0.1
2018-Jul-13 20:09N 45°23' E 036°42'0 0.1
2018-Jul-13 20:00N 45°23' E 036°42'0 0.0
2018-Jul-13 17:39N 45°24' E 036°42'1 3.9
2018-Jul-13 17:30N 45°24' E 036°42'14 6.2
2018-Jul-13 15:16N 45°37' E 036°48'  

Dump ship's entire track history